sensor_id;sensor_type;location;lat;lon;timestamp;P1;durP1;ratioP1;P2;durP2;ratioP2
41713;SDS011;27401;47.384;13.666;2022-07-03T02:02:39;1.30;;;1.20;;
41713;SDS011;27401;47.384;13.666;2022-07-03T02:05:10;1.00;;;0.95;;
41713;SDS011;27401;47.384;13.666;2022-07-03T02:10:54;2.22;;;1.17;;
41713;SDS011;27401;47.384;13.666;2022-07-03T02:13:23;1.88;;;1.33;;
41713;SDS011;27401;47.384;13.666;2022-07-03T02:15:49;1.30;;;1.20;;
41713;SDS011;27401;47.384;13.666;2022-07-03T02:21:05;1.45;;;1.20;;
41713;SDS011;27401;47.384;13.666;2022-07-03T02:23:37;2.10;;;1.42;;
41713;SDS011;27401;47.384;13.666;2022-07-03T02:26:09;1.20;;;1.10;;
41713;SDS011;27401;47.384;13.666;2022-07-03T02:28:44;1.40;;;1.30;;
41713;SDS011;27401;47.384;13.666;2022-07-03T02:31:27;1.92;;;1.17;;
41713;SDS011;27401;47.384;13.666;2022-07-03T02:34:21;4.25;;;1.40;;
41713;SDS011;27401;47.384;13.666;2022-07-03T02:36:48;1.55;;;1.23;;
41713;SDS011;27401;47.384;13.666;2022-07-03T02:39:27;1.50;;;1.40;;
41713;SDS011;27401;47.384;13.666;2022-07-03T02:41:58;1.42;;;1.33;;
41713;SDS011;27401;47.384;13.666;2022-07-03T02:44:34;1.75;;;1.27;;
41713;SDS011;27401;47.384;13.666;2022-07-03T02:52:12;1.95;;;1.75;;
41713;SDS011;27401;47.384;13.666;2022-07-03T02:55:09;2.70;;;1.60;;
41713;SDS011;27401;47.384;13.666;2022-07-03T02:57:42;2.58;;;1.67;;
41713;SDS011;27401;47.384;13.666;2022-07-03T03:00:09;2.55;;;1.90;;
41713;SDS011;27401;47.384;13.666;2022-07-03T03:02:38;1.92;;;1.73;;
41713;SDS011;27401;47.384;13.666;2022-07-03T03:07:59;3.25;;;1.80;;
41713;SDS011;27401;47.384;13.666;2022-07-03T03:10:35;2.55;;;2.28;;
41713;SDS011;27401;47.384;13.666;2022-07-03T03:13:06;1.55;;;1.45;;
41713;SDS011;27401;47.384;13.666;2022-07-03T03:15:33;4.90;;;2.05;;
41713;SDS011;27401;47.384;13.666;2022-07-03T03:18:04;2.70;;;1.90;;
41713;SDS011;27401;47.384;13.666;2022-07-03T03:20:34;2.08;;;1.70;;
41713;SDS011;27401;47.384;13.666;2022-07-03T03:26:12;2.90;;;1.60;;
41713;SDS011;27401;47.384;13.666;2022-07-03T03:28:38;1.80;;;1.70;;
41713;SDS011;27401;47.384;13.666;2022-07-03T03:31:11;2.10;;;1.90;;
41713;SDS011;27401;47.384;13.666;2022-07-03T03:33:43;3.17;;;1.70;;
41713;SDS011;27401;47.384;13.666;2022-07-03T03:36:18;3.53;;;1.80;;
41713;SDS011;27401;47.384;13.666;2022-07-03T03:38:45;5.80;;;1.70;;
41713;SDS011;27401;47.384;13.666;2022-07-03T03:41:25;3.75;;;1.45;;
41713;SDS011;27401;47.384;13.666;2022-07-03T03:43:56;3.63;;;1.70;;
41713;SDS011;27401;47.384;13.666;2022-07-03T03:46:22;1.77;;;1.65;;
41713;SDS011;27401;47.384;13.666;2022-07-03T03:48:53;1.83;;;1.70;;
41713;SDS011;27401;47.384;13.666;2022-07-03T03:51:19;2.10;;;1.90;;
41713;SDS011;27401;47.384;13.666;2022-07-03T03:58:38;2.08;;;1.67;;
41713;SDS011;27401;47.384;13.666;2022-07-03T04:01:05;2.03;;;1.80;;
41713;SDS011;27401;47.384;13.666;2022-07-03T04:03:32;1.70;;;1.60;;
41713;SDS011;27401;47.384;13.666;2022-07-03T04:05:58;1.50;;;1.25;;
41713;SDS011;27401;47.384;13.666;2022-07-03T04:08:24;1.95;;;1.85;;
41713;SDS011;27401;47.384;13.666;2022-07-03T04:10:50;4.45;;;1.85;;
41713;SDS011;27401;47.384;13.666;2022-07-03T04:13:17;3.15;;;1.95;;
41713;SDS011;27401;47.384;13.666;2022-07-03T04:15:44;2.45;;;1.90;;
41713;SDS011;27401;47.384;13.666;2022-07-03T04:18:10;2.30;;;2.03;;
41713;SDS011;27401;47.384;13.666;2022-07-03T04:20:35;2.13;;;2.03;;
41713;SDS011;27401;47.384;13.666;2022-07-03T04:23:01;3.13;;;1.90;;
41713;SDS011;27401;47.384;13.666;2022-07-03T04:25:27;2.83;;;2.00;;
41713;SDS011;27401;47.384;13.666;2022-07-03T04:27:53;1.98;;;1.88;;
41713;SDS011;27401;47.384;13.666;2022-07-03T04:30:18;2.08;;;1.98;;
41713;SDS011;27401;47.384;13.666;2022-07-03T04:32:44;3.67;;;1.80;;
41713;SDS011;27401;47.384;13.666;2022-07-03T04:35:10;1.77;;;1.67;;
41713;SDS011;27401;47.384;13.666;2022-07-03T04:37:36;2.00;;;1.80;;
41713;SDS011;27401;47.384;13.666;2022-07-03T04:40:02;3.28;;;1.90;;
41713;SDS011;27401;47.384;13.666;2022-07-03T04:42:28;2.10;;;1.88;;
41713;SDS011;27401;47.384;13.666;2022-07-03T04:44:54;3.45;;;2.08;;
41713;SDS011;27401;47.384;13.666;2022-07-03T04:47:20;2.47;;;2.28;;
41713;SDS011;27401;47.384;13.666;2022-07-03T04:49:45;2.72;;;1.98;;
41713;SDS011;27401;47.384;13.666;2022-07-03T04:52:11;2.60;;;2.17;;
41713;SDS011;27401;47.384;13.666;2022-07-03T04:54:37;2.15;;;2.03;;
41713;SDS011;27401;47.384;13.666;2022-07-03T04:57:02;3.42;;;2.30;;
41713;SDS011;27401;47.384;13.666;2022-07-03T04:59:28;2.30;;;2.10;;
41713;SDS011;27401;47.384;13.666;2022-07-03T05:01:54;5.00;;;2.40;;
41713;SDS011;27401;47.384;13.666;2022-07-03T05:04:20;3.05;;;2.22;;
41713;SDS011;27401;47.384;13.666;2022-07-03T05:06:46;5.30;;;2.08;;
41713;SDS011;27401;47.384;13.666;2022-07-03T05:09:11;2.60;;;2.00;;
41713;SDS011;27401;47.384;13.666;2022-07-03T05:11:37;3.30;;;2.20;;
41713;SDS011;27401;47.384;13.666;2022-07-03T05:14:03;2.03;;;1.90;;
41713;SDS011;27401;47.384;13.666;2022-07-03T05:16:29;2.58;;;2.38;;
41713;SDS011;27401;47.384;13.666;2022-07-03T05:18:55;2.15;;;1.95;;
41713;SDS011;27401;47.384;13.666;2022-07-03T05:21:20;2.05;;;1.88;;
41713;SDS011;27401;47.384;13.666;2022-07-03T05:23:46;1.98;;;1.80;;
41713;SDS011;27401;47.384;13.666;2022-07-03T05:26:11;2.30;;;2.10;;
41713;SDS011;27401;47.384;13.666;2022-07-03T05:28:37;3.15;;;2.15;;
41713;SDS011;27401;47.384;13.666;2022-07-03T05:31:03;2.35;;;2.15;;
41713;SDS011;27401;47.384;13.666;2022-07-03T05:33:28;1.92;;;1.83;;
41713;SDS011;27401;47.384;13.666;2022-07-03T05:35:54;3.55;;;2.08;;
41713;SDS011;27401;47.384;13.666;2022-07-03T05:38:21;2.78;;;2.40;;
41713;SDS011;27401;47.384;13.666;2022-07-03T05:41:18;2.08;;;1.88;;
41713;SDS011;27401;47.384;13.666;2022-07-03T05:43:51;1.50;;;1.40;;
41713;SDS011;27401;47.384;13.666;2022-07-03T05:46:16;1.83;;;1.73;;
41713;SDS011;27401;47.384;13.666;2022-07-03T05:48:48;2.20;;;1.45;;
41713;SDS011;27401;47.384;13.666;2022-07-03T05:51:13;2.53;;;1.90;;
41713;SDS011;27401;47.384;13.666;2022-07-03T05:53:45;1.98;;;1.77;;
41713;SDS011;27401;47.384;13.666;2022-07-03T05:56:10;2.97;;;1.70;;
41713;SDS011;27401;47.384;13.666;2022-07-03T05:58:42;2.50;;;2.13;;
41713;SDS011;27401;47.384;13.666;2022-07-03T06:01:07;2.25;;;1.80;;
41713;SDS011;27401;47.384;13.666;2022-07-03T06:03:40;2.25;;;2.05;;
41713;SDS011;27401;47.384;13.666;2022-07-03T06:06:05;2.42;;;1.65;;
41713;SDS011;27401;47.384;13.666;2022-07-03T06:08:37;2.15;;;1.95;;
41713;SDS011;27401;47.384;13.666;2022-07-03T06:11:02;3.08;;;1.95;;
41713;SDS011;27401;47.384;13.666;2022-07-03T06:13:34;3.58;;;1.95;;
41713;SDS011;27401;47.384;13.666;2022-07-03T06:15:59;2.20;;;2.00;;
41713;SDS011;27401;47.384;13.666;2022-07-03T06:18:32;2.20;;;2.00;;
41713;SDS011;27401;47.384;13.666;2022-07-03T06:20:57;2.45;;;1.60;;
41713;SDS011;27401;47.384;13.666;2022-07-03T06:23:29;1.83;;;1.73;;
41713;SDS011;27401;47.384;13.666;2022-07-03T06:25:54;1.67;;;1.58;;
41713;SDS011;27401;47.384;13.666;2022-07-03T06:28:26;1.80;;;1.70;;
41713;SDS011;27401;47.384;13.666;2022-07-03T06:30:51;1.95;;;1.73;;
41713;SDS011;27401;47.384;13.666;2022-07-03T06:33:23;4.78;;;1.70;;
41713;SDS011;27401;47.384;13.666;2022-07-03T06:35:48;1.92;;;1.83;;
41713;SDS011;27401;47.384;13.666;2022-07-03T06:38:21;2.58;;;1.90;;
41713;SDS011;27401;47.384;13.666;2022-07-03T06:40:46;2.10;;;1.80;;
41713;SDS011;27401;47.384;13.666;2022-07-03T06:43:18;6.20;;;2.08;;
41713;SDS011;27401;47.384;13.666;2022-07-03T06:45:50;4.82;;;2.30;;
41713;SDS011;27401;47.384;13.666;2022-07-03T06:48:15;3.30;;;2.08;;
41713;SDS011;27401;47.384;13.666;2022-07-03T06:50:41;2.85;;;1.60;;
41713;SDS011;27401;47.384;13.666;2022-07-03T06:53:07;2.17;;;1.48;;
41713;SDS011;27401;47.384;13.666;2022-07-03T06:55:32;1.85;;;1.75;;
41713;SDS011;27401;47.384;13.666;2022-07-03T06:57:58;3.92;;;1.75;;
41713;SDS011;27401;47.384;13.666;2022-07-03T07:00:23;1.85;;;1.67;;
41713;SDS011;27401;47.384;13.666;2022-07-03T07:02:49;1.50;;;1.40;;
41713;SDS011;27401;47.384;13.666;2022-07-03T07:05:14;1.60;;;1.50;;
41713;SDS011;27401;47.384;13.666;2022-07-03T07:07:40;1.50;;;1.40;;
41713;SDS011;27401;47.384;13.666;2022-07-03T07:10:06;1.55;;;1.45;;
41713;SDS011;27401;47.384;13.666;2022-07-03T07:12:31;1.40;;;1.30;;
41713;SDS011;27401;47.384;13.666;2022-07-03T07:14:57;2.13;;;1.60;;
41713;SDS011;27401;47.384;13.666;2022-07-03T07:17:22;3.38;;;1.58;;
41713;SDS011;27401;47.384;13.666;2022-07-03T07:19:48;1.90;;;1.48;;
41713;SDS011;27401;47.384;13.666;2022-07-03T07:22:13;1.30;;;1.30;;
41713;SDS011;27401;47.384;13.666;2022-07-03T07:24:39;1.45;;;1.35;;
41713;SDS011;27401;47.384;13.666;2022-07-03T07:27:05;1.30;;;1.27;;
41713;SDS011;27401;47.384;13.666;2022-07-03T07:29:30;1.20;;;1.20;;
41713;SDS011;27401;47.384;13.666;2022-07-03T07:31:56;1.70;;;1.60;;
41713;SDS011;27401;47.384;13.666;2022-07-03T07:34:21;1.30;;;1.20;;
41713;SDS011;27401;47.384;13.666;2022-07-03T07:36:47;1.67;;;1.40;;
41713;SDS011;27401;47.384;13.666;2022-07-03T07:39:12;1.60;;;1.50;;
41713;SDS011;27401;47.384;13.666;2022-07-03T07:41:38;1.50;;;1.40;;
41713;SDS011;27401;47.384;13.666;2022-07-03T07:44:04;1.10;;;1.05;;
41713;SDS011;27401;47.384;13.666;2022-07-03T07:46:29;1.50;;;1.40;;
41713;SDS011;27401;47.384;13.666;2022-07-03T07:48:56;1.15;;;1.15;;
41713;SDS011;27401;47.384;13.666;2022-07-03T07:51:21;1.30;;;1.20;;
41713;SDS011;27401;47.384;13.666;2022-07-03T07:53:47;1.33;;;1.23;;
41713;SDS011;27401;47.384;13.666;2022-07-03T07:56:12;1.25;;;1.17;;
41713;SDS011;27401;47.384;13.666;2022-07-03T07:58:38;1.35;;;1.25;;
41713;SDS011;27401;47.384;13.666;2022-07-03T08:01:03;1.10;;;0.98;;
41713;SDS011;27401;47.384;13.666;2022-07-03T08:03:54;1.35;;;1.20;;
41713;SDS011;27401;47.384;13.666;2022-07-03T08:06:44;1.08;;;0.98;;
41713;SDS011;27401;47.384;13.666;2022-07-03T08:09:09;2.30;;;1.00;;
41713;SDS011;27401;47.384;13.666;2022-07-03T08:11:41;2.10;;;1.30;;
41713;SDS011;27401;47.384;13.666;2022-07-03T08:14:06;0.85;;;0.85;;
41713;SDS011;27401;47.384;13.666;2022-07-03T08:16:39;1.15;;;0.98;;
41713;SDS011;27401;47.384;13.666;2022-07-03T08:19:06;1.08;;;0.90;;
41713;SDS011;27401;47.384;13.666;2022-07-03T08:21:32;1.20;;;1.10;;
41713;SDS011;27401;47.384;13.666;2022-07-03T08:23:58;1.00;;;0.90;;
41713;SDS011;27401;47.384;13.666;2022-07-03T08:26:23;0.88;;;0.88;;
41713;SDS011;27401;47.384;13.666;2022-07-03T08:28:49;1.48;;;0.90;;
41713;SDS011;27401;47.384;13.666;2022-07-03T08:31:14;1.73;;;0.80;;
41713;SDS011;27401;47.384;13.666;2022-07-03T08:33:40;1.02;;;1.02;;
41713;SDS011;27401;47.384;13.666;2022-07-03T08:36:05;1.10;;;1.00;;
41713;SDS011;27401;47.384;13.666;2022-07-03T08:38:31;1.20;;;1.10;;
41713;SDS011;27401;47.384;13.666;2022-07-03T08:41:01;1.35;;;0.95;;
41713;SDS011;27401;47.384;13.666;2022-07-03T08:43:27;2.00;;;1.00;;
41713;SDS011;27401;47.384;13.666;2022-07-03T08:45:54;0.80;;;0.80;;
41713;SDS011;27401;47.384;13.666;2022-07-03T08:48:23;0.65;;;0.65;;
41713;SDS011;27401;47.384;13.666;2022-07-03T08:50:50;1.30;;;0.63;;
41713;SDS011;27401;47.384;13.666;2022-07-03T08:53:17;0.70;;;0.70;;
41713;SDS011;27401;47.384;13.666;2022-07-03T08:55:43;0.70;;;0.70;;
41713;SDS011;27401;47.384;13.666;2022-07-03T08:58:10;1.20;;;0.60;;
41713;SDS011;27401;47.384;13.666;2022-07-03T09:00:37;0.90;;;0.43;;
41713;SDS011;27401;47.384;13.666;2022-07-03T09:03:03;0.50;;;0.50;;
41713;SDS011;27401;47.384;13.666;2022-07-03T09:05:29;0.93;;;0.73;;
41713;SDS011;27401;47.384;13.666;2022-07-03T09:07:55;0.70;;;0.70;;
41713;SDS011;27401;47.384;13.666;2022-07-03T09:10:22;0.82;;;0.70;;
41713;SDS011;27401;47.384;13.666;2022-07-03T09:12:47;0.70;;;0.70;;
41713;SDS011;27401;47.384;13.666;2022-07-03T09:15:13;1.52;;;0.80;;
41713;SDS011;27401;47.384;13.666;2022-07-03T09:17:39;0.50;;;0.50;;
41713;SDS011;27401;47.384;13.666;2022-07-03T09:20:06;0.80;;;0.73;;
41713;SDS011;27401;47.384;13.666;2022-07-03T09:22:33;0.50;;;0.50;;
41713;SDS011;27401;47.384;13.666;2022-07-03T09:25:04;0.70;;;0.70;;
41713;SDS011;27401;47.384;13.666;2022-07-03T09:27:35;0.70;;;0.70;;
41713;SDS011;27401;47.384;13.666;2022-07-03T09:30:03;0.90;;;0.60;;
41713;SDS011;27401;47.384;13.666;2022-07-03T09:32:30;0.55;;;0.55;;
41713;SDS011;27401;47.384;13.666;2022-07-03T09:35:12;0.50;;;0.50;;
41713;SDS011;27401;47.384;13.666;2022-07-03T09:37:47;0.68;;;0.68;;
41713;SDS011;27401;47.384;13.666;2022-07-03T09:40:52;0.60;;;0.60;;
41713;SDS011;27401;47.384;13.666;2022-07-03T09:43:28;0.63;;;0.63;;
41713;SDS011;27401;47.384;13.666;2022-07-03T09:45:55;0.63;;;0.60;;
41713;SDS011;27401;47.384;13.666;2022-07-03T09:56:42;2.25;;;0.88;;
41713;SDS011;27401;47.384;13.666;2022-07-03T09:59:16;2.00;;;0.90;;
41713;SDS011;27401;47.384;13.666;2022-07-03T10:01:44;0.68;;;0.50;;
41713;SDS011;27401;47.384;13.666;2022-07-03T10:04:12;0.60;;;0.60;;
41713;SDS011;27401;47.384;13.666;2022-07-03T10:06:57;1.25;;;0.50;;
41713;SDS011;27401;47.384;13.666;2022-07-03T10:09:28;0.70;;;0.70;;
41713;SDS011;27401;47.384;13.666;2022-07-03T10:11:58;0.60;;;0.57;;
41713;SDS011;27401;47.384;13.666;2022-07-03T10:14:25;1.27;;;0.60;;
41713;SDS011;27401;47.384;13.666;2022-07-03T10:16:52;2.05;;;0.70;;
41713;SDS011;27401;47.384;13.666;2022-07-03T10:19:19;2.40;;;0.52;;
41713;SDS011;27401;47.384;13.666;2022-07-03T10:21:50;0.80;;;0.70;;
41713;SDS011;27401;47.384;13.666;2022-07-03T10:24:21;1.05;;;0.60;;
41713;SDS011;27401;47.384;13.666;2022-07-03T10:29:16;0.60;;;0.60;;
41713;SDS011;27401;47.384;13.666;2022-07-03T10:31:45;2.05;;;0.50;;
41713;SDS011;27401;47.384;13.666;2022-07-03T10:34:17;1.17;;;0.70;;
41713;SDS011;27401;47.384;13.666;2022-07-03T10:36:45;0.55;;;0.55;;
41713;SDS011;27401;47.384;13.666;2022-07-03T10:39:14;0.60;;;0.60;;
41713;SDS011;27401;47.384;13.666;2022-07-03T10:41:45;0.60;;;0.60;;
41713;SDS011;27401;47.384;13.666;2022-07-03T10:44:31;0.60;;;0.60;;
41713;SDS011;27401;47.384;13.666;2022-07-03T10:50:13;1.70;;;0.90;;
41713;SDS011;27401;47.384;13.666;2022-07-03T10:52:43;0.70;;;0.65;;
41713;SDS011;27401;47.384;13.666;2022-07-03T10:55:10;1.45;;;0.60;;
41713;SDS011;27401;47.384;13.666;2022-07-03T10:57:36;1.13;;;0.88;;
41713;SDS011;27401;47.384;13.666;2022-07-03T11:02:41;0.80;;;0.80;;
41713;SDS011;27401;47.384;13.666;2022-07-03T11:05:08;0.60;;;0.60;;
41713;SDS011;27401;47.384;13.666;2022-07-03T11:15:42;0.50;;;0.45;;
41713;SDS011;27401;47.384;13.666;2022-07-03T11:18:26;1.25;;;0.55;;
41713;SDS011;27401;47.384;13.666;2022-07-03T11:25:57;0.95;;;0.80;;
41713;SDS011;27401;47.384;13.666;2022-07-03T11:41:20;0.60;;;0.60;;
41713;SDS011;27401;47.384;13.666;2022-07-03T11:44:04;0.50;;;0.50;;
41713;SDS011;27401;47.384;13.666;2022-07-03T11:46:32;0.40;;;0.40;;
41713;SDS011;27401;47.384;13.666;2022-07-03T11:49:09;0.70;;;0.70;;
41713;SDS011;27401;47.384;13.666;2022-07-03T11:51:42;0.73;;;0.70;;
41713;SDS011;27401;47.384;13.666;2022-07-03T11:54:24;0.60;;;0.60;;
41713;SDS011;27401;47.384;13.666;2022-07-03T11:56:50;0.43;;;0.43;;
41713;SDS011;27401;47.384;13.666;2022-07-03T11:59:22;1.73;;;0.80;;
41713;SDS011;27401;47.384;13.666;2022-07-03T12:01:47;1.42;;;0.57;;
41713;SDS011;27401;47.384;13.666;2022-07-03T12:04:20;0.60;;;0.60;;
41713;SDS011;27401;47.384;13.666;2022-07-03T12:06:50;0.50;;;0.50;;
41713;SDS011;27401;47.384;13.666;2022-07-03T12:09:33;0.63;;;0.63;;
41713;SDS011;27401;47.384;13.666;2022-07-03T12:12:09;0.70;;;0.70;;
41713;SDS011;27401;47.384;13.666;2022-07-03T12:14:45;0.65;;;0.43;;
41713;SDS011;27401;47.384;13.666;2022-07-03T12:19:48;0.50;;;0.50;;
41713;SDS011;27401;47.384;13.666;2022-07-03T12:22:30;0.60;;;0.60;;
41713;SDS011;27401;47.384;13.666;2022-07-03T12:25:12;3.28;;;0.57;;
41713;SDS011;27401;47.384;13.666;2022-07-03T12:27:44;0.68;;;0.68;;
41713;SDS011;27401;47.384;13.666;2022-07-03T12:30:11;1.63;;;0.60;;
41713;SDS011;27401;47.384;13.666;2022-07-03T12:32:46;1.48;;;0.80;;
41713;SDS011;27401;47.384;13.666;2022-07-03T12:35:11;1.02;;;0.80;;
41713;SDS011;27401;47.384;13.666;2022-07-03T12:37:38;0.55;;;0.55;;
41713;SDS011;27401;47.384;13.666;2022-07-03T12:40:10;0.60;;;0.60;;
41713;SDS011;27401;47.384;13.666;2022-07-03T12:45:13;0.52;;;0.52;;
41713;SDS011;27401;47.384;13.666;2022-07-03T12:47:39;1.85;;;0.80;;
41713;SDS011;27401;47.384;13.666;2022-07-03T12:50:05;2.88;;;0.80;;
41713;SDS011;27401;47.384;13.666;2022-07-03T12:52:33;1.58;;;0.65;;
41713;SDS011;27401;47.384;13.666;2022-07-03T12:55:00;1.23;;;0.65;;
41713;SDS011;27401;47.384;13.666;2022-07-03T12:57:26;1.25;;;0.70;;
41713;SDS011;27401;47.384;13.666;2022-07-03T13:00:18;1.20;;;1.10;;
41713;SDS011;27401;47.384;13.666;2022-07-03T13:02:46;2.30;;;0.85;;
41713;SDS011;27401;47.384;13.666;2022-07-03T13:05:20;0.80;;;0.80;;
41713;SDS011;27401;47.384;13.666;2022-07-03T13:07:47;0.95;;;0.80;;
41713;SDS011;27401;47.384;13.666;2022-07-03T13:10:23;0.85;;;0.70;;
41713;SDS011;27401;47.384;13.666;2022-07-03T13:12:52;0.65;;;0.65;;
41713;SDS011;27401;47.384;13.666;2022-07-03T13:15:25;0.70;;;0.68;;
41713;SDS011;27401;47.384;13.666;2022-07-03T13:20:21;2.72;;;1.00;;
41713;SDS011;27401;47.384;13.666;2022-07-03T13:22:47;1.40;;;0.80;;
41713;SDS011;27401;47.384;13.666;2022-07-03T13:25:14;3.47;;;0.85;;
41713;SDS011;27401;47.384;13.666;2022-07-03T13:27:39;3.45;;;0.90;;
41713;SDS011;27401;47.384;13.666;2022-07-03T13:30:05;4.40;;;1.23;;
41713;SDS011;27401;47.384;13.666;2022-07-03T13:32:31;2.35;;;0.90;;
41713;SDS011;27401;47.384;13.666;2022-07-03T13:34:57;3.22;;;1.00;;
41713;SDS011;27401;47.384;13.666;2022-07-03T13:37:22;1.90;;;1.20;;
41713;SDS011;27401;47.384;13.666;2022-07-03T13:39:48;2.70;;;0.90;;
41713;SDS011;27401;47.384;13.666;2022-07-03T13:42:13;0.80;;;0.60;;
41713;SDS011;27401;47.384;13.666;2022-07-03T13:44:39;2.35;;;1.15;;
41713;SDS011;27401;47.384;13.666;2022-07-03T13:47:05;1.83;;;1.60;;
41713;SDS011;27401;47.384;13.666;2022-07-03T13:49:31;3.00;;;2.30;;
41713;SDS011;27401;47.384;13.666;2022-07-03T13:51:57;7.40;;;2.20;;
41713;SDS011;27401;47.384;13.666;2022-07-03T13:54:23;2.17;;;1.65;;
41713;SDS011;27401;47.384;13.666;2022-07-03T13:56:48;2.07;;;1.30;;
41713;SDS011;27401;47.384;13.666;2022-07-03T13:59:14;1.50;;;1.03;;
41713;SDS011;27401;47.384;13.666;2022-07-03T14:01:40;1.20;;;1.07;;
41713;SDS011;27401;47.384;13.666;2022-07-03T14:04:05;1.67;;;1.10;;
41713;SDS011;27401;47.384;13.666;2022-07-03T14:06:31;0.90;;;0.90;;
41713;SDS011;27401;47.384;13.666;2022-07-03T14:08:57;1.30;;;0.87;;
41713;SDS011;27401;47.384;13.666;2022-07-03T14:11:22;1.60;;;0.90;;
41713;SDS011;27401;47.384;13.666;2022-07-03T14:13:48;1.50;;;0.90;;
41713;SDS011;27401;47.384;13.666;2022-07-03T14:16:13;2.07;;;0.87;;
41713;SDS011;27401;47.384;13.666;2022-07-03T14:18:39;1.52;;;0.80;;
41713;SDS011;27401;47.384;13.666;2022-07-03T14:21:04;1.35;;;1.00;;
41713;SDS011;27401;47.384;13.666;2022-07-03T14:23:31;3.07;;;0.80;;
41713;SDS011;27401;47.384;13.666;2022-07-03T14:25:58;0.80;;;0.80;;
41713;SDS011;27401;47.384;13.666;2022-07-03T14:28:24;0.90;;;0.80;;
41713;SDS011;27401;47.384;13.666;2022-07-03T14:31:08;0.83;;;0.80;;
41713;SDS011;27401;47.384;13.666;2022-07-03T14:33:46;1.27;;;0.87;;
41713;SDS011;27401;47.384;13.666;2022-07-03T14:36:12;0.80;;;0.73;;
41713;SDS011;27401;47.384;13.666;2022-07-03T14:38:37;1.70;;;0.90;;
41713;SDS011;27401;47.384;13.666;2022-07-03T14:41:03;1.20;;;0.80;;
41713;SDS011;27401;47.384;13.666;2022-07-03T14:43:29;1.30;;;0.97;;
41713;SDS011;27401;47.384;13.666;2022-07-03T14:45:54;2.08;;;0.98;;
41713;SDS011;27401;47.384;13.666;2022-07-03T14:48:20;1.35;;;0.82;;
41713;SDS011;27401;47.384;13.666;2022-07-03T14:50:46;1.42;;;0.75;;
41713;SDS011;27401;47.384;13.666;2022-07-03T14:53:11;1.52;;;0.82;;
41713;SDS011;27401;47.384;13.666;2022-07-03T14:55:38;2.88;;;1.10;;
41713;SDS011;27401;47.384;13.666;2022-07-03T14:58:20;1.20;;;0.70;;
41713;SDS011;27401;47.384;13.666;2022-07-03T15:00:51;4.00;;;0.83;;
41713;SDS011;27401;47.384;13.666;2022-07-03T15:03:26;2.03;;;0.80;;
41713;SDS011;27401;47.384;13.666;2022-07-03T15:05:52;1.05;;;0.80;;
41713;SDS011;27401;47.384;13.666;2022-07-03T15:10:45;2.13;;;1.00;;
41713;SDS011;27401;47.384;13.666;2022-07-03T15:13:11;0.90;;;0.80;;
41713;SDS011;27401;47.384;13.666;2022-07-03T15:15:38;2.35;;;1.05;;
41713;SDS011;27401;47.384;13.666;2022-07-03T15:18:05;1.90;;;0.80;;
41713;SDS011;27401;47.384;13.666;2022-07-03T15:20:35;3.33;;;1.10;;
41713;SDS011;27401;47.384;13.666;2022-07-03T15:23:02;2.60;;;1.10;;
41713;SDS011;27401;47.384;13.666;2022-07-03T15:25:29;1.80;;;0.90;;
41713;SDS011;27401;47.384;13.666;2022-07-03T15:27:56;2.13;;;1.00;;
41713;SDS011;27401;47.384;13.666;2022-07-03T15:30:22;0.93;;;0.80;;
41713;SDS011;27401;47.384;13.666;2022-07-03T15:32:49;1.00;;;0.77;;
41713;SDS011;27401;47.384;13.666;2022-07-03T15:35:16;5.55;;;1.10;;
41713;SDS011;27401;47.384;13.666;2022-07-03T15:40:23;1.23;;;1.00;;
41713;SDS011;27401;47.384;13.666;2022-07-03T15:43:06;2.83;;;0.82;;
41713;SDS011;27401;47.384;13.666;2022-07-03T15:45:56;2.92;;;1.10;;
41713;SDS011;27401;47.384;13.666;2022-07-03T15:54:17;1.95;;;0.93;;
41713;SDS011;27401;47.384;13.666;2022-07-03T15:56:53;1.38;;;1.00;;
41713;SDS011;27401;47.384;13.666;2022-07-03T15:59:20;2.20;;;1.00;;
41713;SDS011;27401;47.384;13.666;2022-07-03T16:01:49;2.63;;;1.10;;
41713;SDS011;27401;47.384;13.666;2022-07-03T16:07:18;0.93;;;0.90;;
41713;SDS011;27401;47.384;13.666;2022-07-03T16:09:43;1.08;;;0.90;;
41713;SDS011;27401;47.384;13.666;2022-07-03T16:12:09;3.00;;;2.47;;
41713;SDS011;27401;47.384;13.666;2022-07-03T16:14:40;2.00;;;1.90;;
41713;SDS011;27401;47.384;13.666;2022-07-03T16:17:06;2.45;;;2.05;;
41713;SDS011;27401;47.384;13.666;2022-07-03T16:19:33;1.90;;;1.80;;
41713;SDS011;27401;47.384;13.666;2022-07-03T16:21:59;1.80;;;1.70;;
41713;SDS011;27401;47.384;13.666;2022-07-03T16:24:26;2.17;;;1.50;;
41713;SDS011;27401;47.384;13.666;2022-07-03T16:26:53;1.77;;;1.38;;
41713;SDS011;27401;47.384;13.666;2022-07-03T16:29:19;1.73;;;1.15;;
41713;SDS011;27401;47.384;13.666;2022-07-03T16:31:46;1.07;;;1.00;;
41713;SDS011;27401;47.384;13.666;2022-07-03T16:36:52;1.83;;;0.87;;
41713;SDS011;27401;47.384;13.666;2022-07-03T16:42:20;2.58;;;1.00;;
41713;SDS011;27401;47.384;13.666;2022-07-03T16:44:47;1.08;;;0.95;;
41713;SDS011;27401;47.384;13.666;2022-07-03T16:47:14;1.90;;;0.93;;
41713;SDS011;27401;47.384;13.666;2022-07-03T16:49:40;1.03;;;0.97;;
41713;SDS011;27401;47.384;13.666;2022-07-03T16:52:10;2.30;;;1.00;;
41713;SDS011;27401;47.384;13.666;2022-07-03T16:54:36;1.83;;;0.90;;
41713;SDS011;27401;47.384;13.666;2022-07-03T16:57:03;1.40;;;0.90;;
41713;SDS011;27401;47.384;13.666;2022-07-03T16:59:30;1.08;;;0.80;;
41713;SDS011;27401;47.384;13.666;2022-07-03T17:01:56;2.75;;;1.10;;
41713;SDS011;27401;47.384;13.666;2022-07-03T17:04:22;2.60;;;0.80;;
41713;SDS011;27401;47.384;13.666;2022-07-03T17:06:52;2.50;;;1.03;;
41713;SDS011;27401;47.384;13.666;2022-07-03T17:09:18;3.20;;;0.98;;
41713;SDS011;27401;47.384;13.666;2022-07-03T17:11:43;2.40;;;1.37;;
41713;SDS011;27401;47.384;13.666;2022-07-03T17:14:10;5.07;;;4.63;;
41713;SDS011;27401;47.384;13.666;2022-07-03T17:16:37;1.50;;;1.20;;
41713;SDS011;27401;47.384;13.666;2022-07-03T17:19:06;2.22;;;2.03;;
41713;SDS011;27401;47.384;13.666;2022-07-03T17:21:36;1.48;;;1.38;;
41713;SDS011;27401;47.384;13.666;2022-07-03T17:24:07;1.40;;;1.30;;
41713;SDS011;27401;47.384;13.666;2022-07-03T17:26:33;1.77;;;1.15;;
41713;SDS011;27401;47.384;13.666;2022-07-03T17:29:03;1.17;;;1.00;;
41713;SDS011;27401;47.384;13.666;2022-07-03T17:31:36;0.98;;;0.90;;
41713;SDS011;27401;47.384;13.666;2022-07-03T17:34:07;2.07;;;1.00;;
41713;SDS011;27401;47.384;13.666;2022-07-03T17:36:33;1.65;;;0.88;;
41713;SDS011;27401;47.384;13.666;2022-07-03T17:39:00;1.85;;;0.98;;
41713;SDS011;27401;47.384;13.666;2022-07-03T17:41:28;1.00;;;0.90;;
41713;SDS011;27401;47.384;13.666;2022-07-03T17:43:55;1.13;;;1.00;;
41713;SDS011;27401;47.384;13.666;2022-07-03T17:46:21;3.75;;;1.00;;
41713;SDS011;27401;47.384;13.666;2022-07-03T17:48:49;2.60;;;0.90;;
41713;SDS011;27401;47.384;13.666;2022-07-03T17:51:18;1.55;;;1.00;;
41713;SDS011;27401;47.384;13.666;2022-07-03T17:53:47;1.02;;;0.80;;
41713;SDS011;27401;47.384;13.666;2022-07-03T17:56:14;1.95;;;1.02;;
41713;SDS011;27401;47.384;13.666;2022-07-03T17:58:42;1.25;;;0.93;;
41713;SDS011;27401;47.384;13.666;2022-07-03T18:01:12;1.63;;;1.00;;
41713;SDS011;27401;47.384;13.666;2022-07-03T18:03:39;2.20;;;0.90;;
41713;SDS011;27401;47.384;13.666;2022-07-03T18:06:08;1.53;;;0.90;;
41713;SDS011;27401;47.384;13.666;2022-07-03T18:08:44;2.45;;;1.10;;
41713;SDS011;27401;47.384;13.666;2022-07-03T18:13:59;1.00;;;0.90;;
41713;SDS011;27401;47.384;13.666;2022-07-03T18:16:33;1.50;;;0.90;;
41713;SDS011;27401;47.384;13.666;2022-07-03T18:19:00;2.90;;;1.90;;